sensor_id;sensor_type;location;lat;lon;timestamp;pressure;altitude;pressure_sealevel;temperature
41654;BMP280;30790;52.030;7.110;2022-08-02T00:01:26;101192.91;;;22.54
41654;BMP280;30790;52.030;7.110;2022-08-02T00:03:52;101171.59;;;22.39
41654;BMP280;30790;52.030;7.110;2022-08-02T00:06:17;101190.41;;;22.52
41654;BMP280;30790;52.030;7.110;2022-08-02T00:08:42;101189.59;;;22.51
41654;BMP280;30790;52.030;7.110;2022-08-02T00:11:08;101198.13;;;22.55
41654;BMP280;30790;52.030;7.110;2022-08-02T00:13:33;101170.38;;;22.46
41654;BMP280;30790;52.030;7.110;2022-08-02T00:15:58;101185.78;;;22.52
41654;BMP280;30790;52.030;7.110;2022-08-02T00:18:23;101192.16;;;22.58
41654;BMP280;30790;52.030;7.110;2022-08-02T00:20:49;101192.16;;;22.58
41654;BMP280;30790;52.030;7.110;2022-08-02T00:23:14;101189.09;;;22.55
41654;BMP280;30790;52.030;7.110;2022-08-02T00:25:40;101188.25;;;22.54
41654;BMP280;30790;52.030;7.110;2022-08-02T00:28:05;101186.59;;;22.53
41654;BMP280;30790;52.030;7.110;2022-08-02T00:30:30;101184.94;;;22.52
41654;BMP280;30790;52.030;7.110;2022-08-02T00:32:56;101167.13;;;22.49
41654;BMP280;30790;52.030;7.110;2022-08-02T00:35:21;101175.34;;;22.49
41654;BMP280;30790;52.030;7.110;2022-08-02T00:37:46;101187.09;;;22.50
41654;BMP280;30790;52.030;7.110;2022-08-02T00:40:11;101186.34;;;22.55
41654;BMP280;30790;52.030;7.110;2022-08-02T00:42:38;101183.03;;;22.52
41654;BMP280;30790;52.030;7.110;2022-08-02T00:45:04;101197.88;;;22.57
41654;BMP280;30790;52.030;7.110;2022-08-02T00:47:29;101179.72;;;22.50
41654;BMP280;30790;52.030;7.110;2022-08-02T00:49:55;101175.34;;;22.49
41654;BMP280;30790;52.030;7.110;2022-08-02T00:52:21;101173.69;;;22.48
41654;BMP280;30790;52.030;7.110;2022-08-02T00:54:47;101173.09;;;22.46
41654;BMP280;30790;52.030;7.110;2022-08-02T00:57:13;101174.25;;;22.50
41654;BMP280;30790;52.030;7.110;2022-08-02T00:59:38;101165.94;;;22.45
41654;BMP280;30790;52.030;7.110;2022-08-02T01:02:03;101180.88;;;22.55
41654;BMP280;30790;52.030;7.110;2022-08-02T01:04:28;101167.97;;;22.50
41654;BMP280;30790;52.030;7.110;2022-08-02T01:06:54;101170.69;;;22.50
41654;BMP280;30790;52.030;7.110;2022-08-02T01:09:19;101189.91;;;22.55
41654;BMP280;30790;52.030;7.110;2022-08-02T01:11:45;101175.72;;;22.41
41654;BMP280;30790;52.030;7.110;2022-08-02T01:14:12;101187.44;;;22.54
41654;BMP280;30790;52.030;7.110;2022-08-02T01:17:02;101174.84;;;22.52
41654;BMP280;30790;52.030;7.110;2022-08-02T01:19:37;101180.31;;;22.52
41654;BMP280;30790;52.030;7.110;2022-08-02T01:25:14;101172.09;;;22.52
41654;BMP280;30790;52.030;7.110;2022-08-02T01:30:30;101174.00;;;22.52
41654;BMP280;30790;52.030;7.110;2022-08-02T01:33:00;101167.38;;;22.48
41654;BMP280;30790;52.030;7.110;2022-08-02T01:35:29;101160.00;;;22.48
41654;BMP280;30790;52.030;7.110;2022-08-02T01:38:04;101170.94;;;22.48
41654;BMP280;30790;52.030;7.110;2022-08-02T01:40:35;101164.38;;;22.49
41654;BMP280;30790;52.030;7.110;2022-08-02T01:43:01;101165.94;;;22.45
41654;BMP280;30790;52.030;7.110;2022-08-02T01:45:31;101172.09;;;22.52
41654;BMP280;30790;52.030;7.110;2022-08-02T01:47:58;101173.75;;;22.54
41654;BMP280;30790;52.030;7.110;2022-08-02T01:50:30;101164.88;;;22.46
41654;BMP280;30790;52.030;7.110;2022-08-02T01:52:59;101173.69;;;22.48
41654;BMP280;30790;52.030;7.110;2022-08-02T01:55:34;101168.94;;;22.44
41654;BMP280;30790;52.030;7.110;2022-08-02T01:58:03;101181.38;;;22.51
41654;BMP280;30790;52.030;7.110;2022-08-02T02:00:32;101165.38;;;22.43
41654;BMP280;30790;52.030;7.110;2022-08-02T02:03:00;101172.59;;;22.49
41654;BMP280;30790;52.030;7.110;2022-08-02T02:05:28;101174.25;;;22.50
41654;BMP280;30790;52.030;7.110;2022-08-02T02:07:57;101151.78;;;22.48
41654;BMP280;30790;52.030;7.110;2022-08-02T02:10:25;101155.94;;;22.51
41654;BMP280;30790;52.030;7.110;2022-08-02T02:12:52;101155.94;;;22.51
41654;BMP280;30790;52.030;7.110;2022-08-02T02:15:19;101148.81;;;22.50
41654;BMP280;30790;52.030;7.110;2022-08-02T02:17:46;101139.66;;;22.44
41654;BMP280;30790;52.030;7.110;2022-08-02T02:20:16;101152.38;;;22.50
41654;BMP280;30790;52.030;7.110;2022-08-02T02:22:42;101145.50;;;22.48
41654;BMP280;30790;52.030;7.110;2022-08-02T02:25:09;101145.25;;;22.49
41654;BMP280;30790;52.030;7.110;2022-08-02T02:27:36;101136.69;;;22.46
41654;BMP280;30790;52.030;7.110;2022-08-02T02:30:06;101133.94;;;22.46
41654;BMP280;30790;52.030;7.110;2022-08-02T02:32:32;101141.69;;;22.49
41654;BMP280;30790;52.030;7.110;2022-08-02T02:35:00;101128.97;;;22.43
41654;BMP280;30790;52.030;7.110;2022-08-02T02:37:27;101131.47;;;22.44
41654;BMP280;30790;52.030;7.110;2022-08-02T02:39:55;101126.81;;;22.45
41654;BMP280;30790;52.030;7.110;2022-08-02T02:42:29;101120.75;;;22.43
41654;BMP280;30790;52.030;7.110;2022-08-02T02:44:56;101122.53;;;22.49
41654;BMP280;30790;52.030;7.110;2022-08-02T02:47:22;101094.28;;;22.27
41654;BMP280;30790;52.030;7.110;2022-08-02T02:49:48;101123.59;;;22.48
41654;BMP280;30790;52.030;7.110;2022-08-02T02:52:16;101125.50;;;22.47
41654;BMP280;30790;52.030;7.110;2022-08-02T02:54:44;101123.50;;;22.43
41654;BMP280;30790;52.030;7.110;2022-08-02T02:57:11;101128.25;;;22.47
41654;BMP280;30790;52.030;7.110;2022-08-02T02:59:37;101129.91;;;22.48
41654;BMP280;30790;52.030;7.110;2022-08-02T03:02:04;101130.97;;;22.47
41654;BMP280;30790;52.030;7.110;2022-08-02T03:04:30;101113.31;;;22.38
41654;BMP280;30790;52.030;7.110;2022-08-02T03:06:56;101130.38;;;22.45
41654;BMP280;30790;52.030;7.110;2022-08-02T03:09:21;101094.78;;;22.24
41654;BMP280;30790;52.030;7.110;2022-08-02T03:11:47;101095.44;;;22.31
41654;BMP280;30790;52.030;7.110;2022-08-02T03:14:13;101103.13;;;22.34
41654;BMP280;30790;52.030;7.110;2022-08-02T03:16:45;101059.31;;;22.12
41654;BMP280;30790;52.030;7.110;2022-08-02T03:19:11;101104.09;;;22.44
41654;BMP280;30790;52.030;7.110;2022-08-02T03:21:37;101102.69;;;22.42
41654;BMP280;30790;52.030;7.110;2022-08-02T03:24:03;101099.97;;;22.42
41654;BMP280;30790;52.030;7.110;2022-08-02T03:26:29;101096.41;;;22.41
41654;BMP280;30790;52.030;7.110;2022-08-02T03:28:54;101085.97;;;22.38
41654;BMP280;30790;52.030;7.110;2022-08-02T03:31:19;101090.44;;;22.44
41654;BMP280;30790;52.030;7.110;2022-08-02T03:33:45;101071.22;;;22.39
41654;BMP280;30790;52.030;7.110;2022-08-02T03:36:13;101072.03;;;22.40
41654;BMP280;30790;52.030;7.110;2022-08-02T03:38:40;101083.31;;;22.43
41654;BMP280;30790;52.030;7.110;2022-08-02T03:41:09;101097.47;;;22.40
41654;BMP280;30790;52.030;7.110;2022-08-02T03:43:35;101097.56;;;22.45
41654;BMP280;30790;52.030;7.110;2022-08-02T03:46:03;101091.50;;;22.43
41654;BMP280;30790;52.030;7.110;2022-08-02T03:48:29;101093.66;;;22.41
41654;BMP280;30790;52.030;7.110;2022-08-02T03:50:55;101109.31;;;22.46
41654;BMP280;30790;52.030;7.110;2022-08-02T03:53:21;101097.72;;;22.39
41654;BMP280;30790;52.030;7.110;2022-08-02T03:55:47;101089.78;;;22.37
41654;BMP280;30790;52.030;7.110;2022-08-02T03:58:23;101099.97;;;22.42
41654;BMP280;30790;52.030;7.110;2022-08-02T04:00:49;101095.56;;;22.41
41654;BMP280;30790;52.030;7.110;2022-08-02T04:03:15;101094.16;;;22.38
41654;BMP280;30790;52.030;7.110;2022-08-02T04:05:41;101093.91;;;22.40
41654;BMP280;30790;52.030;7.110;2022-08-02T04:08:06;101099.13;;;22.41
41654;BMP280;30790;52.030;7.110;2022-08-02T04:10:32;101093.59;;;22.36
41654;BMP280;30790;52.030;7.110;2022-08-02T04:13:23;101101.53;;;22.38
41654;BMP280;30790;52.030;7.110;2022-08-02T04:15:53;101106.75;;;22.39
41654;BMP280;30790;52.030;7.110;2022-08-02T04:18:23;101097.41;;;22.35
41654;BMP280;30790;52.030;7.110;2022-08-02T04:20:50;101092.44;;;22.32
41654;BMP280;30790;52.030;7.110;2022-08-02T04:23:17;101096.84;;;22.33
41654;BMP280;30790;52.030;7.110;2022-08-02T04:25:43;101108.69;;;22.39
41654;BMP280;30790;52.030;7.110;2022-08-02T04:28:10;101099.81;;;22.32
41654;BMP280;30790;52.030;7.110;2022-08-02T04:30:36;101104.13;;;22.28
41654;BMP280;30790;52.030;7.110;2022-08-02T04:33:03;101112.59;;;22.26
41654;BMP280;30790;52.030;7.110;2022-08-02T04:35:29;101107.88;;;22.22
41654;BMP280;30790;52.030;7.110;2022-08-02T04:37:54;101096.31;;;22.03
41654;BMP280;30790;52.030;7.110;2022-08-02T04:40:20;101114.28;;;21.99
41654;BMP280;30790;52.030;7.110;2022-08-02T04:42:45;101100.34;;;21.83
41654;BMP280;30790;52.030;7.110;2022-08-02T04:45:11;101099.44;;;21.78
41654;BMP280;30790;52.030;7.110;2022-08-02T04:47:36;101099.91;;;21.18
41654;BMP280;30790;52.030;7.110;2022-08-02T04:50:02;101117.41;;;21.45
41654;BMP280;30790;52.030;7.110;2022-08-02T04:52:27;101114.84;;;21.55
41654;BMP280;30790;52.030;7.110;2022-08-02T04:54:52;101106.91;;;21.54
41654;BMP280;30790;52.030;7.110;2022-08-02T04:57:19;101095.97;;;21.54
41654;BMP280;30790;52.030;7.110;2022-08-02T05:00:04;101102.50;;;21.65
41654;BMP280;30790;52.030;7.110;2022-08-02T05:02:31;101092.66;;;21.52
41654;BMP280;30790;52.030;7.110;2022-08-02T05:04:56;101084.47;;;21.52
41654;BMP280;30790;52.030;7.110;2022-08-02T05:07:21;101081.16;;;21.50
41654;BMP280;30790;52.030;7.110;2022-08-02T05:09:47;101095.97;;;21.54
41654;BMP280;30790;52.030;7.110;2022-08-02T05:12:12;101097.16;;;21.58
41654;BMP280;30790;52.030;7.110;2022-08-02T05:14:37;101078.38;;;21.33
41654;BMP280;30790;52.030;7.110;2022-08-02T05:17:02;101112.38;;;21.54
41654;BMP280;30790;52.030;7.110;2022-08-02T05:19:28;101091.31;;;21.38
41654;BMP280;30790;52.030;7.110;2022-08-02T05:21:53;101078.63;;;21.32
41654;BMP280;30790;52.030;7.110;2022-08-02T05:24:18;101096.38;;;21.46
41654;BMP280;30790;52.030;7.110;2022-08-02T05:26:43;101101.13;;;21.50
41654;BMP280;30790;52.030;7.110;2022-08-02T05:29:09;101093.06;;;21.44
41654;BMP280;30790;52.030;7.110;2022-08-02T05:31:34;101111.53;;;21.53
41654;BMP280;30790;52.030;7.110;2022-08-02T05:33:59;101093.25;;;21.54
41654;BMP280;30790;52.030;7.110;2022-08-02T05:36:25;101095.81;;;21.44
41654;BMP280;30790;52.030;7.110;2022-08-02T05:38:50;101098.63;;;21.49
41654;BMP280;30790;52.030;7.110;2022-08-02T05:41:17;101096.47;;;21.51
41654;BMP280;30790;52.030;7.110;2022-08-02T05:43:43;101079.25;;;21.50
41654;BMP280;30790;52.030;7.110;2022-08-02T05:46:08;101069.56;;;21.43
41654;BMP280;30790;52.030;7.110;2022-08-02T05:48:34;101090.38;;;21.60
41654;BMP280;30790;52.030;7.110;2022-08-02T05:51:02;101098.47;;;21.55
41654;BMP280;30790;52.030;7.110;2022-08-02T05:56:24;101084.56;;;21.57
41654;BMP280;30790;52.030;7.110;2022-08-02T05:59:02;101089.19;;;21.56
41654;BMP280;30790;52.030;7.110;2022-08-02T06:01:31;101100.78;;;21.64
41654;BMP280;30790;52.030;7.110;2022-08-02T06:03:59;101095.34;;;21.64
41654;BMP280;30790;52.030;7.110;2022-08-02T06:06:25;101093.69;;;21.63
41654;BMP280;30790;52.030;7.110;2022-08-02T06:08:59;101082.91;;;21.56
41654;BMP280;30790;52.030;7.110;2022-08-02T06:11:33;101094.16;;;21.59
41654;BMP280;30790;52.030;7.110;2022-08-02T06:14:01;101094.66;;;21.56
41654;BMP280;30790;52.030;7.110;2022-08-02T06:16:27;101090.28;;;21.55
41654;BMP280;30790;52.030;7.110;2022-08-02T06:18:52;101086.56;;;21.62
41654;BMP280;30790;52.030;7.110;2022-08-02T06:21:18;101078.84;;;21.58
41654;BMP280;30790;52.030;7.110;2022-08-02T06:23:46;101093.09;;;21.60
41654;BMP280;30790;52.030;7.110;2022-08-02T06:26:12;101094.66;;;21.56
41654;BMP280;30790;52.030;7.110;2022-08-02T06:28:38;101090.47;;;21.66
41654;BMP280;30790;52.030;7.110;2022-08-02T06:31:07;101091.19;;;21.61
41654;BMP280;30790;52.030;7.110;2022-08-02T06:33:33;101085.41;;;21.57
41654;BMP280;30790;52.030;7.110;2022-08-02T06:38:50;101058.44;;;21.33
41654;BMP280;30790;52.030;7.110;2022-08-02T06:41:19;101073.81;;;21.50
41654;BMP280;30790;52.030;7.110;2022-08-02T06:43:58;101097.25;;;21.63
41654;BMP280;30790;52.030;7.110;2022-08-02T06:46:24;101087.63;;;21.60
41654;BMP280;30790;52.030;7.110;2022-08-02T06:48:50;101085.97;;;21.59
41654;BMP280;30790;52.030;7.110;2022-08-02T06:51:16;101095.69;;;21.67
41654;BMP280;30790;52.030;7.110;2022-08-02T06:53:42;101093.22;;;21.66
41654;BMP280;30790;52.030;7.110;2022-08-02T06:56:07;101076.13;;;21.58
41654;BMP280;30790;52.030;7.110;2022-08-02T06:58:33;101084.81;;;21.55
41654;BMP280;30790;52.030;7.110;2022-08-02T07:00:58;101080.25;;;21.61
41654;BMP280;30790;52.030;7.110;2022-08-02T07:03:23;101091.31;;;21.66
41654;BMP280;30790;52.030;7.110;2022-08-02T07:05:52;101091.41;;;21.71
41654;BMP280;30790;52.030;7.110;2022-08-02T07:08:18;101083.94;;;21.67
41654;BMP280;30790;52.030;7.110;2022-08-02T07:10:45;101091.41;;;21.71
41654;BMP280;30790;52.030;7.110;2022-08-02T07:13:11;101077.66;;;21.66
41654;BMP280;30790;52.030;7.110;2022-08-02T07:15:37;101077.06;;;21.64
41654;BMP280;30790;52.030;7.110;2022-08-02T07:18:02;101079.63;;;21.71
41654;BMP280;30790;52.030;7.110;2022-08-02T07:20:28;101083.78;;;21.73
41654;BMP280;30790;52.030;7.110;2022-08-02T07:22:53;101081.13;;;21.78
41654;BMP280;30790;52.030;7.110;2022-08-02T07:25:19;101079.13;;;21.90
41654;BMP280;30790;52.030;7.110;2022-08-02T07:27:44;101071.34;;;21.82
41654;BMP280;30790;52.030;7.110;2022-08-02T07:30:10;101074.69;;;21.84
41654;BMP280;30790;52.030;7.110;2022-08-02T07:32:35;101070.28;;;21.83
41654;BMP280;30790;52.030;7.110;2022-08-02T07:35:01;101079.50;;;21.94
41654;BMP280;30790;52.030;7.110;2022-08-02T07:37:29;101077.69;;;22.00
41654;BMP280;30790;52.030;7.110;2022-08-02T07:39:55;101070.88;;;22.02
41654;BMP280;30790;52.030;7.110;2022-08-02T07:42:20;101066.25;;;22.03
41654;BMP280;30790;52.030;7.110;2022-08-02T07:44:46;101052.50;;;21.98
41654;BMP280;30790;52.030;7.110;2022-08-02T07:47:11;101071.25;;;22.06
41654;BMP280;30790;52.030;7.110;2022-08-02T07:49:37;101057.00;;;22.04
41654;BMP280;30790;52.030;7.110;2022-08-02T07:52:02;101058.16;;;22.08
41654;BMP280;30790;52.030;7.110;2022-08-02T07:54:28;101053.50;;;22.08
41654;BMP280;30790;52.030;7.110;2022-08-02T07:56:53;101043.22;;;22.15
41654;BMP280;30790;52.030;7.110;2022-08-02T07:59:19;101055.00;;;22.16
41654;BMP280;30790;52.030;7.110;2022-08-02T08:01:44;101048.69;;;22.15
41654;BMP280;30790;52.030;7.110;2022-08-02T08:04:10;101040.50;;;22.15
41654;BMP280;30790;52.030;7.110;2022-08-02T08:06:35;101044.06;;;22.16
41654;BMP280;30790;52.030;7.110;2022-08-02T08:09:00;101041.75;;;22.08
41654;BMP280;30790;52.030;7.110;2022-08-02T08:11:26;101058.28;;;22.18
41654;BMP280;30790;52.030;7.110;2022-08-02T08:13:51;101043.41;;;22.09
41654;BMP280;30790;52.030;7.110;2022-08-02T08:16:17;101048.19;;;22.18
41654;BMP280;30790;52.030;7.110;2022-08-02T08:18:42;101039.09;;;22.13
41654;BMP280;30790;52.030;7.110;2022-08-02T08:21:08;101043.16;;;22.10
41654;BMP280;30790;52.030;7.110;2022-08-02T08:23:34;101050.69;;;22.20
41654;BMP280;30790;52.030;7.110;2022-08-02T08:26:00;101045.13;;;22.15
41654;BMP280;30790;52.030;7.110;2022-08-02T08:28:26;101041.56;;;22.14
41654;BMP280;30790;52.030;7.110;2022-08-02T08:30:51;101049.03;;;22.19
41654;BMP280;30790;52.030;7.110;2022-08-02T08:33:17;101046.06;;;22.20
41654;BMP280;30790;52.030;7.110;2022-08-02T08:35:42;101044.41;;;22.19
41654;BMP280;30790;52.030;7.110;2022-08-02T08:38:08;101046.06;;;22.20
41654;BMP280;30790;52.030;7.110;2022-08-02T08:40:33;101046.88;;;22.21
41654;BMP280;30790;52.030;7.110;2022-08-02T08:42:59;101041.06;;;22.17
41654;BMP280;30790;52.030;7.110;2022-08-02T08:45:24;101034.03;;;22.22
41654;BMP280;30790;52.030;7.110;2022-08-02T08:48:10;101040.66;;;22.26
41654;BMP280;30790;52.030;7.110;2022-08-02T08:50:45;101037.34;;;22.24
41654;BMP280;30790;52.030;7.110;2022-08-02T08:53:12;101027.75;;;22.21
41654;BMP280;30790;52.030;7.110;2022-08-02T08:55:38;101019.78;;;22.19
41654;BMP280;30790;52.030;7.110;2022-08-02T08:58:04;101015.72;;;22.22
41654;BMP280;30790;52.030;7.110;2022-08-02T09:00:33;101020.19;;;22.28
41654;BMP280;30790;52.030;7.110;2022-08-02T09:03:02;101026.81;;;22.32
41654;BMP280;30790;52.030;7.110;2022-08-02T09:05:27;101015.88;;;22.15
41654;BMP280;30790;52.030;7.110;2022-08-02T09:07:53;101023.34;;;22.20
41654;BMP280;30790;52.030;7.110;2022-08-02T09:10:41;101029.47;;;22.27
41654;BMP280;30790;52.030;7.110;2022-08-02T09:13:26;101017.44;;;22.28
41654;BMP280;30790;52.030;7.110;2022-08-02T09:16:01;101018.47;;;22.22
41654;BMP280;30790;52.030;7.110;2022-08-02T09:18:38;101028.66;;;22.27
41654;BMP280;30790;52.030;7.110;2022-08-02T09:21:06;101028.31;;;22.23
41654;BMP280;30790;52.030;7.110;2022-08-02T09:26:12;101029.47;;;22.27
41654;BMP280;30790;52.030;7.110;2022-08-02T09:28:41;101028.38;;;22.28
41654;BMP280;30790;52.030;7.110;2022-08-02T09:31:13;101010.25;;;22.22
41654;BMP280;30790;52.030;7.110;2022-08-02T09:33:40;101022.84;;;22.23
41654;BMP280;30790;52.030;7.110;2022-08-02T09:36:14;101011.91;;;22.23
41654;BMP280;30790;52.030;7.110;2022-08-02T09:38:52;101010.59;;;22.26
41654;BMP280;30790;52.030;7.110;2022-08-02T09:41:23;101002.88;;;22.23
41654;BMP280;30790;52.030;7.110;2022-08-02T09:43:48;101015.53;;;22.29
41654;BMP280;30790;52.030;7.110;2022-08-02T09:46:16;101008.75;;;22.31
41654;BMP280;30790;52.030;7.110;2022-08-02T09:53:52;101015.34;;;22.35
41654;BMP280;30790;52.030;7.110;2022-08-02T09:56:19;101011.53;;;22.36
41654;BMP280;30790;52.030;7.110;2022-08-02T09:58:45;100992.00;;;22.28
41654;BMP280;30790;52.030;7.110;2022-08-02T10:01:10;100954.16;;;22.03
41654;BMP280;30790;52.030;7.110;2022-08-02T10:03:36;100997.81;;;22.31
41654;BMP280;30790;52.030;7.110;2022-08-02T10:06:02;100969.09;;;22.12
41654;BMP280;30790;52.030;7.110;2022-08-02T10:08:30;100996.72;;;22.32
41654;BMP280;30790;52.030;7.110;2022-08-02T10:10:56;100969.16;;;22.17
41654;BMP280;30790;52.030;7.110;2022-08-02T10:13:32;100994.00;;;22.32
41654;BMP280;30790;52.030;7.110;2022-08-02T10:15:59;100991.81;;;22.34
41654;BMP280;30790;52.030;7.110;2022-08-02T10:18:24;100994.00;;;22.32
41654;BMP280;30790;52.030;7.110;2022-08-02T10:20:52;100985.72;;;22.27
41654;BMP280;30790;52.030;7.110;2022-08-02T10:23:19;100989.59;;;22.31
41654;BMP280;30790;52.030;7.110;2022-08-02T10:25:47;100997.28;;;22.34
41654;BMP280;30790;52.030;7.110;2022-08-02T10:28:15;100993.47;;;22.35
41654;BMP280;30790;52.030;7.110;2022-08-02T10:30:42;100986.88;;;22.31
41654;BMP280;30790;52.030;7.110;2022-08-02T10:33:10;100986.34;;;22.34
41654;BMP280;30790;52.030;7.110;2022-08-02T10:35:38;100989.97;;;22.40
41654;BMP280;30790;52.030;7.110;2022-08-02T10:38:07;100980.06;;;22.34
41654;BMP280;30790;52.030;7.110;2022-08-02T10:43:07;100980.63;;;22.36
41654;BMP280;30790;52.030;7.110;2022-08-02T10:45:32;100983.09;;;22.37
41654;BMP280;30790;52.030;7.110;2022-08-02T10:48:01;100975.47;;;22.39
41654;BMP280;30790;52.030;7.110;2022-08-02T10:53:30;100989.66;;;22.36
41654;BMP280;30790;52.030;7.110;2022-08-02T10:56:04;100982.03;;;22.38
41654;BMP280;30790;52.030;7.110;2022-08-02T10:58:31;100974.34;;;22.35
41654;BMP280;30790;52.030;7.110;2022-08-02T11:01:02;100976.50;;;22.33
41654;BMP280;30790;52.030;7.110;2022-08-02T11:06:06;100977.38;;;22.39
41654;BMP280;30790;52.030;7.110;2022-08-02T11:08:32;100971.34;;;22.37
41654;BMP280;30790;52.030;7.110;2022-08-02T11:11:14;100985.59;;;22.39
41654;BMP280;30790;52.030;7.110;2022-08-02T11:13:58;100988.66;;;22.42
41654;BMP280;30790;52.030;7.110;2022-08-02T11:19:22;100983.19;;;22.42
41654;BMP280;30790;52.030;7.110;2022-08-02T11:22:11;100978.16;;;22.34
41654;BMP280;30790;52.030;7.110;2022-08-02T11:24:38;100976.78;;;22.54
41654;BMP280;30790;52.030;7.110;2022-08-02T11:27:06;100976.72;;;22.48
41654;BMP280;30790;52.030;7.110;2022-08-02T11:29:40;100974.09;;;22.59
41654;BMP280;30790;52.030;7.110;2022-08-02T11:32:07;100970.84;;;22.62
41654;BMP280;30790;52.030;7.110;2022-08-02T11:34:33;100970.84;;;22.62
41654;BMP280;30790;52.030;7.110;2022-08-02T11:36:59;100967.28;;;22.61
41654;BMP280;30790;52.030;7.110;2022-08-02T11:39:24;100962.91;;;22.60
41654;BMP280;30790;52.030;7.110;2022-08-02T11:41:50;100955.41;;;22.50
41654;BMP280;30790;52.030;7.110;2022-08-02T11:44:16;100954.56;;;22.50
41654;BMP280;30790;52.030;7.110;2022-08-02T11:46:42;100966.91;;;22.52
41654;BMP280;30790;52.030;7.110;2022-08-02T11:49:12;100954.63;;;22.55
41654;BMP280;30790;52.030;7.110;2022-08-02T11:51:38;100950.50;;;22.52
41654;BMP280;30790;52.030;7.110;2022-08-02T11:54:03;100947.19;;;22.50
41654;BMP280;30790;52.030;7.110;2022-08-02T11:56:30;100968.09;;;22.62
41654;BMP280;30790;52.030;7.110;2022-08-02T11:59:06;100965.13;;;22.63
41654;BMP280;30790;52.030;7.110;2022-08-02T12:01:33;100964.84;;;22.65
41654;BMP280;30790;52.030;7.110;2022-08-02T12:03:59;100961.56;;;22.63
41654;BMP280;30790;52.030;7.110;2022-08-02T12:06:28;100944.63;;;22.66
41654;BMP280;30790;52.030;7.110;2022-08-02T12:09:11;100943.28;;;22.68
41654;BMP280;30790;52.030;7.110;2022-08-02T12:11:37;100950.09;;;22.66
41654;BMP280;30790;52.030;7.110;2022-08-02T12:14:04;100940.19;;;22.60
41654;BMP280;30790;52.030;7.110;2022-08-02T12:16:37;100947.63;;;22.64
41654;BMP280;30790;52.030;7.110;2022-08-02T12:19:23;100946.78;;;22.64
41654;BMP280;30790;52.030;7.110;2022-08-02T12:22:18;100950.88;;;22.61
41654;BMP280;30790;52.030;7.110;2022-08-02T12:24:46;100951.69;;;22.62
41654;BMP280;30790;52.030;7.110;2022-08-02T12:27:31;100951.13;;;22.60
41654;BMP280;30790;52.030;7.110;2022-08-02T12:30:16;100962.59;;;22.57
41654;BMP280;30790;52.030;7.110;2022-08-02T12:32:43;100964.56;;;22.61
41654;BMP280;30790;52.030;7.110;2022-08-02T12:35:11;100938.97;;;22.50
41654;BMP280;30790;52.030;7.110;2022-08-02T12:37:39;100949.97;;;22.56
41654;BMP280;30790;52.030;7.110;2022-08-02T12:40:23;100944.81;;;22.59
41654;BMP280;30790;52.030;7.110;2022-08-02T12:42:58;100957.09;;;22.57
41654;BMP280;30790;52.030;7.110;2022-08-02T12:45:26;100946.69;;;22.54
41654;BMP280;30790;52.030;7.110;2022-08-02T12:47:53;100956.59;;;22.60
41654;BMP280;30790;52.030;7.110;2022-08-02T12:50:29;100943.69;;;22.55
41654;BMP280;30790;52.030;7.110;2022-08-02T12:53:15;100955.78;;;22.59
41654;BMP280;30790;52.030;7.110;2022-08-02T12:55:56;100944.25;;;22.57
41654;BMP280;30790;52.030;7.110;2022-08-02T12:58:23;100954.38;;;22.57
41654;BMP280;30790;52.030;7.110;2022-08-02T13:00:57;100953.28;;;22.58
41654;BMP280;30790;52.030;7.110;2022-08-02T13:03:22;100936.25;;;22.50
41654;BMP280;30790;52.030;7.110;2022-08-02T13:05:48;100937.06;;;22.51
41654;BMP280;30790;52.030;7.110;2022-08-02T13:08:14;100939.03;;;22.56
41654;BMP280;30790;52.030;7.110;2022-08-02T13:10:40;100915.34;;;22.44
41654;BMP280;30790;52.030;7.110;2022-08-02T13:13:05;100917.63;;;22.47
41654;BMP280;30790;52.030;7.110;2022-08-02T13:15:30;100907.97;;;22.45
41654;BMP280;30790;52.030;7.110;2022-08-02T13:17:56;100927.00;;;22.57
41654;BMP280;30790;52.030;7.110;2022-08-02T13:20:24;100919.56;;;22.52
41654;BMP280;30790;52.030;7.110;2022-08-02T13:22:49;100887.91;;;22.34
41654;BMP280;30790;52.030;7.110;2022-08-02T13:25:14;100913.53;;;22.50
41654;BMP280;30790;52.030;7.110;2022-08-02T13:27:40;100911.06;;;22.48
41654;BMP280;30790;52.030;7.110;2022-08-02T13:30:06;100916.84;;;22.52
41654;BMP280;30790;52.030;7.110;2022-08-02T13:32:32;100916.00;;;22.51
41654;BMP280;30790;52.030;7.110;2022-08-02T13:34:57;100910.84;;;22.55
41654;BMP280;30790;52.030;7.110;2022-08-02T13:37:24;100914.41;;;22.56
41654;BMP280;30790;52.030;7.110;2022-08-02T13:39:49;100905.38;;;22.55
41654;BMP280;30790;52.030;7.110;2022-08-02T13:42:15;100898.78;;;22.51
41654;BMP280;30790;52.030;7.110;2022-08-02T13:44:40;100898.78;;;22.51
41654;BMP280;30790;52.030;7.110;2022-08-02T13:47:05;100886.34;;;22.43
41654;BMP280;30790;52.030;7.110;2022-08-02T13:49:32;100899.59;;;22.51
41654;BMP280;30790;52.030;7.110;2022-08-02T13:51:57;100895.22;;;22.50
41654;BMP280;30790;52.030;7.110;2022-08-02T13:54:23;100895.78;;;22.52
41654;BMP280;30790;52.030;7.110;2022-08-02T13:56:48;100885.88;;;22.46
41654;BMP280;30790;52.030;7.110;2022-08-02T13:59:13;100888.34;;;22.48
41654;BMP280;30790;52.030;7.110;2022-08-02T14:01:39;100881.72;;;22.44
41654;BMP280;30790;52.030;7.110;2022-08-02T14:04:04;100877.06;;;22.44
41654;BMP280;30790;52.030;7.110;2022-08-02T14:06:29;100882.63;;;22.49
41654;BMP280;30790;52.030;7.110;2022-08-02T14:08:55;100892.53;;;22.56
41654;BMP280;30790;52.030;7.110;2022-08-02T14:11:20;100883.44;;;22.50
41654;BMP280;30790;52.030;7.110;2022-08-02T14:13:45;100870.03;;;22.48
41654;BMP280;30790;52.030;7.110;2022-08-02T14:16:11;100867.78;;;22.45
41654;BMP280;30790;52.030;7.110;2022-08-02T14:18:36;100884.31;;;22.56
41654;BMP280;30790;52.030;7.110;2022-08-02T14:21:02;100867.28;;;22.48
41654;BMP280;30790;52.030;7.110;2022-08-02T14:23:27;100859.56;;;22.45
41654;BMP280;30790;52.030;7.110;2022-08-02T14:25:55;100872.03;;;22.58
41654;BMP280;30790;52.030;7.110;2022-08-02T14:28:20;100864.59;;;22.54
41654;BMP280;30790;52.030;7.110;2022-08-02T14:30:45;100860.06;;;22.64